sensor_id;sensor_type;location;lat;lon;timestamp;P1;durP1;ratioP1;P2;durP2;ratioP2
19887;SDS011;10106;51.332;12.336;2023-04-24T06:05:05;4.53;;;1.77;;
19887;SDS011;10106;51.332;12.336;2023-04-24T06:07:31;1.80;;;1.70;;
19887;SDS011;10106;51.332;12.336;2023-04-24T06:09:57;2.50;;;1.75;;
19887;SDS011;10106;51.332;12.336;2023-04-24T06:12:23;7.23;;;1.30;;
19887;SDS011;10106;51.332;12.336;2023-04-24T06:14:48;1.27;;;1.17;;
19887;SDS011;10106;51.332;12.336;2023-04-24T06:17:15;1.57;;;1.37;;
19887;SDS011;10106;51.332;12.336;2023-04-24T06:19:41;1.53;;;1.20;;
19887;SDS011;10106;51.332;12.336;2023-04-24T06:22:06;1.30;;;1.20;;
19887;SDS011;10106;51.332;12.336;2023-04-24T06:24:33;1.50;;;1.20;;
19887;SDS011;10106;51.332;12.336;2023-04-24T06:26:59;61.67;;;57.83;;
19887;SDS011;10106;51.332;12.336;2023-04-24T06:29:26;755.17;;;599.97;;
19887;SDS011;10106;51.332;12.336;2023-04-24T06:31:52;747.50;;;562.07;;
19887;SDS011;10106;51.332;12.336;2023-04-24T06:34:18;671.03;;;615.57;;
19887;SDS011;10106;51.332;12.336;2023-04-24T06:36:44;622.20;;;574.50;;
19887;SDS011;10106;51.332;12.336;2023-04-24T06:39:10;734.60;;;474.30;;
19887;SDS011;10106;51.332;12.336;2023-04-24T06:41:43;523.23;;;482.97;;
19887;SDS011;10106;51.332;12.336;2023-04-24T06:44:09;621.80;;;509.80;;
19887;SDS011;10106;51.332;12.336;2023-04-24T06:46:34;567.70;;;510.90;;
19887;SDS011;10106;51.332;12.336;2023-04-24T06:49:00;551.73;;;497.47;;
19887;SDS011;10106;51.332;12.336;2023-04-24T06:51:26;541.20;;;491.47;;
19887;SDS011;10106;51.332;12.336;2023-04-24T06:53:53;542.87;;;486.40;;
19887;SDS011;10106;51.332;12.336;2023-04-24T06:56:19;473.87;;;435.43;;
19887;SDS011;10106;51.332;12.336;2023-04-24T06:58:45;367.03;;;343.27;;
19887;SDS011;10106;51.332;12.336;2023-04-24T07:01:11;619.60;;;441.07;;
19887;SDS011;10106;51.332;12.336;2023-04-24T07:03:37;705.87;;;407.27;;
19887;SDS011;10106;51.332;12.336;2023-04-24T07:06:04;677.30;;;452.27;;
19887;SDS011;10106;51.332;12.336;2023-04-24T07:08:30;569.57;;;458.23;;
19887;SDS011;10106;51.332;12.336;2023-04-24T07:10:56;451.17;;;418.07;;
19887;SDS011;10106;51.332;12.336;2023-04-24T07:13:22;448.13;;;402.93;;
19887;SDS011;10106;51.332;12.336;2023-04-24T07:15:48;506.27;;;464.87;;
19887;SDS011;10106;51.332;12.336;2023-04-24T07:18:16;181.87;;;172.00;;
19887;SDS011;10106;51.332;12.336;2023-04-24T07:20:42;179.17;;;169.30;;
19887;SDS011;10106;51.332;12.336;2023-04-24T07:23:07;89.67;;;84.87;;
19887;SDS011;10106;51.332;12.336;2023-04-24T07:25:33;15.23;;;12.23;;
19887;SDS011;10106;51.332;12.336;2023-04-24T07:27:59;45.77;;;42.80;;
19887;SDS011;10106;51.332;12.336;2023-04-24T07:30:24;45.63;;;43.00;;
19887;SDS011;10106;51.332;12.336;2023-04-24T07:32:50;135.17;;;128.40;;
19887;SDS011;10106;51.332;12.336;2023-04-24T07:35:16;622.22;;;581.05;;
19887;SDS011;10106;51.332;12.336;2023-04-24T07:37:42;755.40;;;695.20;;
19887;SDS011;10106;51.332;12.336;2023-04-24T07:40:11;288.33;;;273.30;;
19887;SDS011;10106;51.332;12.336;2023-04-24T07:42:38;181.83;;;172.77;;
19887;SDS011;10106;51.332;12.336;2023-04-24T07:45:04;187.23;;;177.47;;
19887;SDS011;10106;51.332;12.336;2023-04-24T07:47:30;35.73;;;33.23;;
19887;SDS011;10106;51.332;12.336;2023-04-24T07:49:56;4.00;;;1.73;;
19887;SDS011;10106;51.332;12.336;2023-04-24T07:52:22;8.73;;;7.77;;
19887;SDS011;10106;51.332;12.336;2023-04-24T07:54:48;124.73;;;118.83;;
19887;SDS011;10106;51.332;12.336;2023-04-24T07:57:15;7.03;;;2.50;;
19887;SDS011;10106;51.332;12.336;2023-04-24T07:59:41;6.00;;;1.80;;
19887;SDS011;10106;51.332;12.336;2023-04-24T08:02:07;1065.45;;;988.08;;
19887;SDS011;10106;51.332;12.336;2023-04-24T08:04:32;188.47;;;179.17;;
19887;SDS011;10106;51.332;12.336;2023-04-24T08:06:58;5.63;;;2.23;;
19887;SDS011;10106;51.332;12.336;2023-04-24T08:09:24;3.97;;;1.40;;
19887;SDS011;10106;51.332;12.336;2023-04-24T08:11:50;1.47;;;1.37;;
19887;SDS011;10106;51.332;12.336;2023-04-24T08:14:16;1129.37;;;999.90;;
19887;SDS011;10106;51.332;12.336;2023-04-24T08:19:07;2.00;;;1.50;;
19887;SDS011;10106;51.332;12.336;2023-04-24T08:28:56;1.83;;;1.50;;
19887;SDS011;10106;51.332;12.336;2023-04-24T08:31:25;2.00;;;1.40;;
19887;SDS011;10106;51.332;12.336;2023-04-24T08:33:51;3.30;;;1.30;;
19887;SDS011;10106;51.332;12.336;2023-04-24T08:36:17;3.10;;;1.23;;
19887;SDS011;10106;51.332;12.336;2023-04-24T08:38:43;350.98;;;329.20;;
19887;SDS011;10106;51.332;12.336;2023-04-24T08:43:34;1.90;;;1.48;;
19887;SDS011;10106;51.332;12.336;2023-04-24T08:46:03;58.00;;;50.23;;
19887;SDS011;10106;51.332;12.336;2023-04-24T08:48:29;3.40;;;1.90;;
19887;SDS011;10106;51.332;12.336;2023-04-24T09:30:10;5.45;;;2.20;;
19887;SDS011;10106;51.332;12.336;2023-04-24T09:32:36;4.18;;;2.38;;
19887;SDS011;10106;51.332;12.336;2023-04-24T09:35:06;4.72;;;2.30;;
19887;SDS011;10106;51.332;12.336;2023-04-24T09:37:46;3.33;;;2.20;;
19887;SDS011;10106;51.332;12.336;2023-04-24T09:40:17;3.85;;;2.20;;
19887;SDS011;10106;51.332;12.336;2023-04-24T09:42:54;1.90;;;1.40;;
19887;SDS011;10106;51.332;12.336;2023-04-24T09:45:35;2.92;;;2.05;;
19887;SDS011;10106;51.332;12.336;2023-04-24T09:48:02;4.85;;;1.80;;
19887;SDS011;10106;51.332;12.336;2023-04-24T09:50:30;6.03;;;1.73;;
19887;SDS011;10106;51.332;12.336;2023-04-24T09:53:02;3.10;;;1.90;;
19887;SDS011;10106;51.332;12.336;2023-04-24T09:55:29;3.88;;;1.88;;
19887;SDS011;10106;51.332;12.336;2023-04-24T09:57:59;4.10;;;1.80;;
19887;SDS011;10106;51.332;12.336;2023-04-24T10:05:44;3.80;;;2.20;;
19887;SDS011;10106;51.332;12.336;2023-04-24T10:08:11;4.55;;;1.88;;
19887;SDS011;10106;51.332;12.336;2023-04-24T10:10:40;3.60;;;1.90;;
19887;SDS011;10106;51.332;12.336;2023-04-24T10:13:09;2.57;;;1.80;;
19887;SDS011;10106;51.332;12.336;2023-04-24T10:15:38;2.92;;;1.70;;
19887;SDS011;10106;51.332;12.336;2023-04-24T10:18:05;3.72;;;2.10;;
19887;SDS011;10106;51.332;12.336;2023-04-24T10:20:31;2.58;;;1.98;;
19887;SDS011;10106;51.332;12.336;2023-04-24T10:22:58;3.35;;;2.30;;
19887;SDS011;10106;51.332;12.336;2023-04-24T10:25:26;4.50;;;2.30;;
19887;SDS011;10106;51.332;12.336;2023-04-24T10:27:57;2.97;;;1.95;;
19887;SDS011;10106;51.332;12.336;2023-04-24T10:30:25;3.17;;;2.10;;
19887;SDS011;10106;51.332;12.336;2023-04-24T10:32:52;1.90;;;1.70;;
19887;SDS011;10106;51.332;12.336;2023-04-24T10:35:18;4.00;;;1.60;;
19887;SDS011;10106;51.332;12.336;2023-04-24T10:37:52;6.75;;;2.97;;
19887;SDS011;10106;51.332;12.336;2023-04-24T10:40:26;5.88;;;2.90;;
19887;SDS011;10106;51.332;12.336;2023-04-24T10:42:55;4.80;;;2.45;;
19887;SDS011;10106;51.332;12.336;2023-04-24T10:45:22;25.05;;;23.00;;
19887;SDS011;10106;51.332;12.336;2023-04-24T10:48:01;5.35;;;3.10;;
19887;SDS011;10106;51.332;12.336;2023-04-24T10:50:29;5.40;;;3.20;;
19887;SDS011;10106;51.332;12.336;2023-04-24T10:53:07;8.73;;;4.03;;
19887;SDS011;10106;51.332;12.336;2023-04-24T11:01:03;6.90;;;5.20;;
19887;SDS011;10106;51.332;12.336;2023-04-24T11:03:30;7.20;;;6.50;;
19887;SDS011;10106;51.332;12.336;2023-04-24T11:11:02;71.13;;;67.15;;
19887;SDS011;10106;51.332;12.336;2023-04-24T11:19:00;1039.35;;;962.65;;
19887;SDS011;10106;51.332;12.336;2023-04-24T11:21:33;956.03;;;884.70;;
19887;SDS011;10106;51.332;12.336;2023-04-24T11:24:27;1082.47;;;999.90;;
19887;SDS011;10106;51.332;12.336;2023-04-24T11:27:20;965.35;;;893.95;;
19887;SDS011;10106;51.332;12.336;2023-04-24T11:34:55;1251.25;;;999.90;;
19887;SDS011;10106;51.332;12.336;2023-04-24T11:37:27;1089.03;;;999.90;;
19887;SDS011;10106;51.332;12.336;2023-04-24T11:39:55;1178.57;;;999.90;;
19887;SDS011;10106;51.332;12.336;2023-04-24T11:42:22;1202.23;;;999.90;;
19887;SDS011;10106;51.332;12.336;2023-04-24T11:44:51;1218.50;;;999.90;;
19887;SDS011;10106;51.332;12.336;2023-04-24T11:47:18;1225.57;;;999.90;;
19887;SDS011;10106;51.332;12.336;2023-04-24T11:49:43;1232.40;;;999.90;;
19887;SDS011;10106;51.332;12.336;2023-04-24T11:52:09;1128.70;;;999.90;;
19887;SDS011;10106;51.332;12.336;2023-04-24T11:54:36;1149.55;;;999.90;;
19887;SDS011;10106;51.332;12.336;2023-04-24T11:57:05;1148.43;;;999.90;;
19887;SDS011;10106;51.332;12.336;2023-04-24T11:59:35;1071.28;;;973.13;;
19887;SDS011;10106;51.332;12.336;2023-04-24T12:02:02;1073.90;;;974.60;;
19887;SDS011;10106;51.332;12.336;2023-04-24T12:04:37;1207.93;;;999.90;;
19887;SDS011;10106;51.332;12.336;2023-04-24T12:09:40;956.63;;;863.10;;
19887;SDS011;10106;51.332;12.336;2023-04-24T12:12:10;896.40;;;806.93;;
19887;SDS011;10106;51.332;12.336;2023-04-24T12:17:09;744.15;;;581.15;;
19887;SDS011;10106;51.332;12.336;2023-04-24T12:19:35;730.90;;;522.40;;
19887;SDS011;10106;51.332;12.336;2023-04-24T12:22:02;744.00;;;550.75;;
19887;SDS011;10106;51.332;12.336;2023-04-24T12:24:29;736.50;;;566.10;;
19887;SDS011;10106;51.332;12.336;2023-04-24T12:26:55;758.35;;;533.85;;
19887;SDS011;10106;51.332;12.336;2023-04-24T12:29:21;1061.70;;;960.53;;
19887;SDS011;10106;51.332;12.336;2023-04-24T12:31:48;1140.45;;;999.90;;
19887;SDS011;10106;51.332;12.336;2023-04-24T12:36:42;718.00;;;476.70;;
19887;SDS011;10106;51.332;12.336;2023-04-24T12:39:14;737.57;;;598.67;;
19887;SDS011;10106;51.332;12.336;2023-04-24T12:41:49;829.30;;;685.60;;
19887;SDS011;10106;51.332;12.336;2023-04-24T12:44:19;697.60;;;517.20;;
19887;SDS011;10106;51.332;12.336;2023-04-24T12:46:44;723.07;;;568.37;;
19887;SDS011;10106;51.332;12.336;2023-04-24T12:49:10;716.15;;;584.95;;
19887;SDS011;10106;51.332;12.336;2023-04-24T12:51:36;741.00;;;605.80;;
19887;SDS011;10106;51.332;12.336;2023-04-24T12:54:01;800.90;;;617.90;;
19887;SDS011;10106;51.332;12.336;2023-04-24T12:56:27;751.00;;;593.30;;
19887;SDS011;10106;51.332;12.336;2023-04-24T12:58:53;712.20;;;531.90;;
19887;SDS011;10106;51.332;12.336;2023-04-24T13:01:18;1192.20;;;999.90;;
19887;SDS011;10106;51.332;12.336;2023-04-24T13:06:10;1204.95;;;999.90;;
19887;SDS011;10106;51.332;12.336;2023-04-24T13:08:35;775.13;;;693.30;;
19887;SDS011;10106;51.332;12.336;2023-04-24T13:11:01;728.80;;;646.05;;
19887;SDS011;10106;51.332;12.336;2023-04-24T13:13:27;729.23;;;631.03;;
19887;SDS011;10106;51.332;12.336;2023-04-24T13:15:52;724.13;;;619.30;;
19887;SDS011;10106;51.332;12.336;2023-04-24T13:18:18;706.50;;;547.50;;
19887;SDS011;10106;51.332;12.336;2023-04-24T13:20:43;779.00;;;657.40;;
19887;SDS011;10106;51.332;12.336;2023-04-24T13:23:10;853.43;;;764.90;;
19887;SDS011;10106;51.332;12.336;2023-04-24T13:25:36;794.90;;;652.80;;
19887;SDS011;10106;51.332;12.336;2023-04-24T13:28:03;819.63;;;733.87;;
19887;SDS011;10106;51.332;12.336;2023-04-24T13:30:29;837.30;;;750.13;;
19887;SDS011;10106;51.332;12.336;2023-04-24T13:32:56;850.70;;;763.67;;
19887;SDS011;10106;51.332;12.336;2023-04-24T13:35:21;1189.90;;;999.90;;
19887;SDS011;10106;51.332;12.336;2023-04-24T13:37:47;917.33;;;828.97;;
19887;SDS011;10106;51.332;12.336;2023-04-24T13:42:39;844.47;;;757.87;;
19887;SDS011;10106;51.332;12.336;2023-04-24T13:45:05;1179.60;;;999.90;;
19887;SDS011;10106;51.332;12.336;2023-04-24T13:47:31;898.70;;;810.43;;
19887;SDS011;10106;51.332;12.336;2023-04-24T13:49:57;857.40;;;770.53;;
19887;SDS011;10106;51.332;12.336;2023-04-24T13:52:22;833.40;;;747.63;;
19887;SDS011;10106;51.332;12.336;2023-04-24T13:57:14;1171.53;;;999.90;;
19887;SDS011;10106;51.332;12.336;2023-04-24T13:59:40;813.37;;;728.63;;
19887;SDS011;10106;51.332;12.336;2023-04-24T14:02:06;779.00;;;694.80;;
19887;SDS011;10106;51.332;12.336;2023-04-24T14:04:31;772.70;;;612.90;;
19887;SDS011;10106;51.332;12.336;2023-04-24T14:06:57;810.00;;;592.00;;
19887;SDS011;10106;51.332;12.336;2023-04-24T14:09:23;732.53;;;580.07;;
19887;SDS011;10106;51.332;12.336;2023-04-24T14:11:48;807.25;;;549.90;;
19887;SDS011;10106;51.332;12.336;2023-04-24T14:14:14;706.37;;;579.20;;
19887;SDS011;10106;51.332;12.336;2023-04-24T14:16:40;737.40;;;582.30;;
19887;SDS011;10106;51.332;12.336;2023-04-24T14:19:05;823.07;;;588.80;;
19887;SDS011;10106;51.332;12.336;2023-04-24T14:21:32;697.27;;;541.30;;
19887;SDS011;10106;51.332;12.336;2023-04-24T14:23:58;693.13;;;539.27;;
19887;SDS011;10106;51.332;12.336;2023-04-24T14:26:23;703.73;;;555.30;;
19887;SDS011;10106;51.332;12.336;2023-04-24T14:28:50;711.23;;;571.73;;
19887;SDS011;10106;51.332;12.336;2023-04-24T14:31:17;711.63;;;589.27;;
19887;SDS011;10106;51.332;12.336;2023-04-24T14:33:43;706.57;;;568.50;;
19887;SDS011;10106;51.332;12.336;2023-04-24T14:36:09;698.33;;;536.73;;
19887;SDS011;10106;51.332;12.336;2023-04-24T14:38:35;699.43;;;530.30;;
19887;SDS011;10106;51.332;12.336;2023-04-24T14:41:01;705.37;;;568.33;;
19887;SDS011;10106;51.332;12.336;2023-04-24T14:43:32;822.80;;;625.00;;
19887;SDS011;10106;51.332;12.336;2023-04-24T14:46:00;721.40;;;557.70;;
19887;SDS011;10106;51.332;12.336;2023-04-24T14:48:29;717.90;;;571.70;;
19887;SDS011;10106;51.332;12.336;2023-04-24T14:50:55;703.33;;;537.77;;
19887;SDS011;10106;51.332;12.336;2023-04-24T14:53:20;700.43;;;531.33;;
19887;SDS011;10106;51.332;12.336;2023-04-24T14:55:46;702.80;;;538.00;;
19887;SDS011;10106;51.332;12.336;2023-04-24T14:58:13;739.67;;;596.07;;
19887;SDS011;10106;51.332;12.336;2023-04-24T15:00:39;710.90;;;551.55;;
19887;SDS011;10106;51.332;12.336;2023-04-24T15:03:04;684.00;;;459.47;;
19887;SDS011;10106;51.332;12.336;2023-04-24T15:05:30;682.23;;;455.47;;
19887;SDS011;10106;51.332;12.336;2023-04-24T15:07:56;678.90;;;451.97;;
19887;SDS011;10106;51.332;12.336;2023-04-24T15:10:22;1146.30;;;999.90;;
19887;SDS011;10106;51.332;12.336;2023-04-24T15:12:48;1183.78;;;999.90;;
19887;SDS011;10106;51.332;12.336;2023-04-24T15:15:14;1200.80;;;999.90;;
19887;SDS011;10106;51.332;12.336;2023-04-24T15:17:40;1229.33;;;999.90;;
19887;SDS011;10106;51.332;12.336;2023-04-24T15:20:07;1241.90;;;999.90;;
19887;SDS011;10106;51.332;12.336;2023-04-24T15:22:33;1222.60;;;999.90;;
19887;SDS011;10106;51.332;12.336;2023-04-24T15:24:59;1211.45;;;999.90;;
19887;SDS011;10106;51.332;12.336;2023-04-24T15:27:26;1221.40;;;999.90;;
19887;SDS011;10106;51.332;12.336;2023-04-24T15:29:52;1237.63;;;999.90;;
19887;SDS011;10106;51.332;12.336;2023-04-24T15:32:19;1184.93;;;999.90;;
19887;SDS011;10106;51.332;12.336;2023-04-24T15:34:45;1218.97;;;999.90;;
19887;SDS011;10106;51.332;12.336;2023-04-24T15:37:11;1224.63;;;999.90;;
19887;SDS011;10106;51.332;12.336;2023-04-24T15:39:37;989.65;;;898.20;;
19887;SDS011;10106;51.332;12.336;2023-04-24T15:42:03;1223.20;;;999.90;;
19887;SDS011;10106;51.332;12.336;2023-04-24T15:44:29;1214.90;;;999.90;;
19887;SDS011;10106;51.332;12.336;2023-04-24T15:46:55;1211.43;;;999.90;;
19887;SDS011;10106;51.332;12.336;2023-04-24T15:49:21;1191.25;;;999.90;;
19887;SDS011;10106;51.332;12.336;2023-04-24T15:51:47;1207.55;;;999.90;;
19887;SDS011;10106;51.332;12.336;2023-04-24T15:54:13;1040.77;;;946.40;;
19887;SDS011;10106;51.332;12.336;2023-04-24T15:56:39;1178.88;;;999.90;;
19887;SDS011;10106;51.332;12.336;2023-04-24T15:59:05;1146.05;;;999.90;;
19887;SDS011;10106;51.332;12.336;2023-04-24T16:01:31;1146.28;;;999.90;;
19887;SDS011;10106;51.332;12.336;2023-04-24T16:03:57;1185.28;;;999.90;;
19887;SDS011;10106;51.332;12.336;2023-04-24T16:06:24;1203.38;;;999.90;;
19887;SDS011;10106;51.332;12.336;2023-04-24T16:08:51;1197.07;;;999.90;;
19887;SDS011;10106;51.332;12.336;2023-04-24T16:11:17;1189.70;;;999.90;;
19887;SDS011;10106;51.332;12.336;2023-04-24T16:13:44;1204.47;;;999.90;;
19887;SDS011;10106;51.332;12.336;2023-04-24T16:16:09;1208.53;;;999.90;;
